DLH5D EDDL-EDDF
Flight info
| Callsign | DLH5D |
|---|---|
| Flight time | 0h 32m |
| Altitude | 23000 |
| Route | COL5Z COL T911 ROLIS ROLIS5A |
| Aircraft | A320/M-SDE3FGHIRWY/LB1 |
Departure
| Time | 2026-05-05 19:06 |
|---|---|
| Airport | Düsseldorf Airport (EDDL) |
Arrival
| Time | 2026-05-05 19:39 |
|---|---|
| Airport | Frankfurt Main Airport (EDDF) |
| Time | Latitude | Longitude | Altitude | Speed | Heading |
|---|---|---|---|---|---|
| 2026-05-05 18:26 | 51.28154 | 6.76736 | 118 ft | 0 kts | 276° |
| 2026-05-05 18:29 | 51.28105 | 6.76725 | 115 ft | 0 kts | 276° |
| 2026-05-05 18:52 | 51.28103 | 6.76752 | 117 ft | 4 kts | 286° |
| 2026-05-05 18:52 | 51.28091 | 6.76788 | 117 ft | 4 kts | 328° |
| 2026-05-05 18:52 | 51.28074 | 6.76795 | 115 ft | 1 kts | 17° |
| 2026-05-05 18:52 | 51.28070 | 6.76794 | 116 ft | 0 kts | 17° |
| 2026-05-05 18:55 | 51.28071 | 6.76794 | 118 ft | 0 kts | 17° |
| 2026-05-05 18:55 | 51.28119 | 6.76817 | 118 ft | 11 kts | 17° |
| 2026-05-05 18:56 | 51.28208 | 6.76843 | 118 ft | 13 kts | 6° |
| 2026-05-05 18:56 | 51.28311 | 6.76861 | 118 ft | 15 kts | 7° |
| 2026-05-05 18:56 | 51.28406 | 6.76826 | 116 ft | 13 kts | 324° |
| 2026-05-05 18:56 | 51.28462 | 6.76755 | 118 ft | 11 kts | 305° |
| 2026-05-05 18:57 | 51.28424 | 6.76638 | 118 ft | 11 kts | 234° |
| 2026-05-05 18:57 | 51.28360 | 6.76503 | 116 ft | 23 kts | 232° |
| 2026-05-05 18:57 | 51.28259 | 6.76289 | 117 ft | 23 kts | 232° |
| 2026-05-05 18:57 | 51.28163 | 6.76089 | 113 ft | 24 kts | 233° |
| 2026-05-05 18:58 | 51.28098 | 6.75951 | 116 ft | 6 kts | 232° |
| 2026-05-05 18:58 | 51.28079 | 6.75913 | 115 ft | 2 kts | 232° |
| 2026-05-05 18:58 | 51.28056 | 6.75865 | 117 ft | 12 kts | 232° |
| 2026-05-05 18:58 | 51.28001 | 6.75751 | 116 ft | 11 kts | 232° |
| 2026-05-05 18:59 | 51.27960 | 6.75662 | 115 ft | 12 kts | 233° |
| 2026-05-05 18:59 | 51.27938 | 6.75591 | 116 ft | 3 kts | 279° |
| 2026-05-05 18:59 | 51.27968 | 6.75549 | 117 ft | 0 kts | 330° |
| 2026-05-05 19:00 | 51.27972 | 6.75545 | 117 ft | 4 kts | 331° |
| 2026-05-05 19:00 | 51.27981 | 6.75537 | 115 ft | 0 kts | 332° |
| 2026-05-05 19:05 | 51.27994 | 6.75526 | 113 ft | 9 kts | 332° |
| 2026-05-05 19:05 | 51.28064 | 6.75469 | 114 ft | 12 kts | 335° |
| 2026-05-05 19:05 | 51.28098 | 6.75487 | 113 ft | 0 kts | 66° |
| 2026-05-05 19:05 | 51.28101 | 6.75490 | 114 ft | 0 kts | 53° |
| 2026-05-05 19:06 | 51.28157 | 6.75609 | 113 ft | 44 kts | 52° |
| 2026-05-05 19:06 | 51.28485 | 6.76299 | 115 ft | 109 kts | 53° |
| 2026-05-05 19:06 | 51.29054 | 6.77493 | 126 ft | 158 kts | 50° |
| 2026-05-05 19:06 | 51.29691 | 6.78910 | 822 ft | 154 kts | 52° |
| 2026-05-05 19:07 | 51.30305 | 6.80287 | 1566 ft | 156 kts | 52° |
| 2026-05-05 19:07 | 51.30754 | 6.81250 | 1779 ft | 169 kts | 52° |
| 2026-05-05 19:07 | 51.31758 | 6.83367 | 2217 ft | 192 kts | 53° |
| 2026-05-05 19:07 | 51.32602 | 6.85143 | 2562 ft | 210 kts | 53° |
| 2026-05-05 19:08 | 51.33535 | 6.87107 | 2865 ft | 236 kts | 53° |
| 2026-05-05 19:08 | 51.34528 | 6.89346 | 3438 ft | 251 kts | 62° |
| 2026-05-05 19:08 | 51.35087 | 6.92006 | 4267 ft | 256 kts | 82° |
| 2026-05-05 19:08 | 51.35087 | 6.94886 | 5078 ft | 263 kts | 98° |
| 2026-05-05 19:09 | 51.34727 | 6.97786 | 5935 ft | 268 kts | 101° |
| 2026-05-05 19:09 | 51.34409 | 7.00751 | 6816 ft | 273 kts | 99° |
| 2026-05-05 19:09 | 51.34040 | 7.03754 | 7647 ft | 278 kts | 110° |
| 2026-05-05 19:09 | 51.33047 | 7.06410 | 8478 ft | 283 kts | 134° |
| 2026-05-05 19:10 | 51.31416 | 7.08252 | 9319 ft | 287 kts | 152° |
| 2026-05-05 19:10 | 51.29673 | 7.09747 | 10111 ft | 292 kts | 152° |
| 2026-05-05 19:10 | 51.27813 | 7.11336 | 10424 ft | 315 kts | 152° |
| 2026-05-05 19:10 | 51.25806 | 7.13053 | 10644 ft | 338 kts | 152° |
| 2026-05-05 19:11 | 51.23671 | 7.14882 | 10916 ft | 356 kts | 152° |
| 2026-05-05 19:11 | 51.21554 | 7.16697 | 11492 ft | 362 kts | 152° |
| 2026-05-05 19:11 | 51.19326 | 7.18611 | 12214 ft | 366 kts | 152° |
| 2026-05-05 19:11 | 51.17072 | 7.20555 | 12938 ft | 369 kts | 152° |
| 2026-05-05 19:12 | 51.14803 | 7.22509 | 13685 ft | 372 kts | 152° |
| 2026-05-05 19:12 | 51.12517 | 7.24471 | 14321 ft | 374 kts | 152° |
| 2026-05-05 19:12 | 51.10216 | 7.26438 | 14962 ft | 377 kts | 152° |
| 2026-05-05 19:12 | 51.08683 | 7.27744 | 15367 ft | 379 kts | 152° |
| 2026-05-05 19:13 | 51.06353 | 7.29731 | 15950 ft | 382 kts | 152° |
| 2026-05-05 19:13 | 51.03998 | 7.31737 | 16532 ft | 385 kts | 152° |
| 2026-05-05 19:13 | 51.01626 | 7.33752 | 17086 ft | 388 kts | 152° |
| 2026-05-05 19:13 | 50.99234 | 7.35788 | 17634 ft | 392 kts | 152° |
| 2026-05-05 19:14 | 50.96817 | 7.37848 | 18195 ft | 395 kts | 152° |
| 2026-05-05 19:14 | 50.94388 | 7.39909 | 18645 ft | 398 kts | 152° |
| 2026-05-05 19:14 | 50.91944 | 7.41980 | 18796 ft | 398 kts | 152° |
| 2026-05-05 19:14 | 50.89507 | 7.44041 | 18833 ft | 398 kts | 152° |
| 2026-05-05 19:15 | 50.87066 | 7.46102 | 18837 ft | 397 kts | 152° |
| 2026-05-05 19:15 | 50.84618 | 7.48165 | 18052 ft | 403 kts | 152° |
| 2026-05-05 19:15 | 50.82146 | 7.50250 | 17568 ft | 396 kts | 152° |
| 2026-05-05 19:15 | 50.79757 | 7.52266 | 17359 ft | 383 kts | 152° |
| 2026-05-05 19:16 | 50.77426 | 7.54229 | 16908 ft | 377 kts | 152° |
| 2026-05-05 19:16 | 50.75124 | 7.56163 | 16386 ft | 374 kts | 152° |
| 2026-05-05 19:16 | 50.72834 | 7.58081 | 15871 ft | 371 kts | 152° |
| 2026-05-05 19:16 | 50.70561 | 7.59983 | 15357 ft | 369 kts | 153° |
| 2026-05-05 19:17 | 50.68331 | 7.61846 | 14930 ft | 367 kts | 153° |
| 2026-05-05 19:17 | 50.66045 | 7.63759 | 14794 ft | 367 kts | 153° |
| 2026-05-05 19:17 | 50.63788 | 7.65650 | 14813 ft | 368 kts | 153° |
| 2026-05-05 19:17 | 50.61523 | 7.67541 | 14820 ft | 368 kts | 153° |
| 2026-05-05 19:18 | 50.59260 | 7.69428 | 14818 ft | 369 kts | 153° |
| 2026-05-05 19:18 | 50.56992 | 7.71318 | 14818 ft | 368 kts | 153° |
| 2026-05-05 19:18 | 50.54727 | 7.73207 | 14817 ft | 369 kts | 153° |
| 2026-05-05 19:18 | 50.52459 | 7.75093 | 14819 ft | 369 kts | 153° |
| 2026-05-05 19:19 | 50.50192 | 7.76975 | 14819 ft | 369 kts | 153° |
| 2026-05-05 19:19 | 50.47921 | 7.78856 | 14777 ft | 368 kts | 153° |
| 2026-05-05 19:19 | 50.45686 | 7.80712 | 14109 ft | 361 kts | 153° |
| 2026-05-05 19:19 | 50.43534 | 7.82616 | 13169 ft | 359 kts | 148° |
| 2026-05-05 19:20 | 50.41553 | 7.84958 | 12190 ft | 355 kts | 143° |
| 2026-05-05 19:20 | 50.39628 | 7.87361 | 11255 ft | 355 kts | 143° |
| 2026-05-05 19:20 | 50.37700 | 7.89750 | 10749 ft | 351 kts | 143° |
| 2026-05-05 19:20 | 50.35789 | 7.92107 | 10258 ft | 348 kts | 143° |
| 2026-05-05 19:21 | 50.33918 | 7.94484 | 9894 ft | 346 kts | 138° |
| 2026-05-05 19:21 | 50.32461 | 7.97491 | 9805 ft | 350 kts | 118° |
| 2026-05-05 19:21 | 50.31701 | 8.01115 | 9827 ft | 354 kts | 102° |
| 2026-05-05 19:21 | 50.31256 | 8.04907 | 9828 ft | 354 kts | 101° |
| 2026-05-05 19:22 | 50.30825 | 8.08709 | 9826 ft | 355 kts | 101° |
| 2026-05-05 19:22 | 50.30398 | 8.12517 | 9831 ft | 355 kts | 101° |
| 2026-05-05 19:22 | 50.29968 | 8.16318 | 9836 ft | 355 kts | 102° |
| 2026-05-05 19:22 | 50.29596 | 8.19582 | 9833 ft | 356 kts | 102° |
| 2026-05-05 19:23 | 50.29157 | 8.23391 | 9834 ft | 356 kts | 102° |
| 2026-05-05 19:23 | 50.28716 | 8.27193 | 9831 ft | 356 kts | 102° |
| 2026-05-05 19:23 | 50.28272 | 8.30999 | 9832 ft | 356 kts | 102° |
| 2026-05-05 19:23 | 50.27841 | 8.34728 | 9827 ft | 340 kts | 102° |
| 2026-05-05 19:24 | 50.27433 | 8.38269 | 9833 ft | 323 kts | 102° |
| 2026-05-05 19:24 | 50.27044 | 8.41641 | 9832 ft | 307 kts | 102° |
| 2026-05-05 19:24 | 50.26665 | 8.44884 | 9831 ft | 300 kts | 102° |
| 2026-05-05 19:24 | 50.26298 | 8.48013 | 9824 ft | 285 kts | 103° |
| 2026-05-05 19:25 | 50.25948 | 8.50983 | 9812 ft | 271 kts | 103° |
| 2026-05-05 19:25 | 50.25608 | 8.53849 | 9815 ft | 267 kts | 103° |
| 2026-05-05 19:25 | 50.25270 | 8.56694 | 9791 ft | 266 kts | 103° |
| 2026-05-05 19:25 | 50.24935 | 8.59521 | 9497 ft | 264 kts | 103° |
| 2026-05-05 19:26 | 50.24601 | 8.62340 | 9183 ft | 263 kts | 103° |
| 2026-05-05 19:26 | 50.24269 | 8.65136 | 8883 ft | 261 kts | 103° |
| 2026-05-05 19:26 | 50.23940 | 8.67919 | 8808 ft | 261 kts | 103° |
| 2026-05-05 19:26 | 50.23604 | 8.70707 | 8812 ft | 262 kts | 103° |
| 2026-05-05 19:27 | 50.23268 | 8.73501 | 8818 ft | 262 kts | 103° |
| 2026-05-05 19:27 | 50.22930 | 8.76297 | 8818 ft | 262 kts | 103° |
| 2026-05-05 19:27 | 50.22594 | 8.79079 | 8595 ft | 260 kts | 103° |
| 2026-05-05 19:27 | 50.22290 | 8.81858 | 8267 ft | 259 kts | 99° |
| 2026-05-05 19:28 | 50.22153 | 8.84663 | 7954 ft | 259 kts | 93° |
| 2026-05-05 19:28 | 50.22210 | 8.87463 | 7642 ft | 258 kts | 86° |
| 2026-05-05 19:28 | 50.22445 | 8.90201 | 7333 ft | 257 kts | 81° |
| 2026-05-05 19:28 | 50.22873 | 8.92950 | 7021 ft | 257 kts | 74° |
| 2026-05-05 19:29 | 50.23453 | 8.95540 | 6837 ft | 255 kts | 70° |
| 2026-05-05 19:29 | 50.24066 | 8.98139 | 6817 ft | 256 kts | 71° |
| 2026-05-05 19:29 | 50.24674 | 9.00752 | 6818 ft | 256 kts | 71° |
| 2026-05-05 19:29 | 50.25282 | 9.03368 | 6821 ft | 256 kts | 71° |
| 2026-05-05 19:30 | 50.25679 | 9.06084 | 6692 ft | 251 kts | 94° |
| 2026-05-05 19:30 | 50.25239 | 9.08649 | 6376 ft | 244 kts | 125° |
| 2026-05-05 19:30 | 50.24052 | 9.10428 | 6040 ft | 236 kts | 155° |
| 2026-05-05 19:30 | 50.22513 | 9.11169 | 5690 ft | 230 kts | 183° |
| 2026-05-05 19:31 | 50.21028 | 9.10563 | 5347 ft | 224 kts | 214° |
| 2026-05-05 19:31 | 50.19813 | 9.09051 | 5045 ft | 222 kts | 223° |
| 2026-05-05 19:31 | 50.18668 | 9.07419 | 5018 ft | 225 kts | 224° |
| 2026-05-05 19:31 | 50.17519 | 9.05748 | 5015 ft | 226 kts | 224° |
| 2026-05-05 19:32 | 50.16519 | 9.03876 | 5014 ft | 225 kts | 244° |
| 2026-05-05 19:32 | 50.15941 | 9.01597 | 5022 ft | 226 kts | 251° |
| 2026-05-05 19:32 | 50.15427 | 8.99307 | 5016 ft | 220 kts | 250° |
| 2026-05-05 19:32 | 50.14913 | 8.97081 | 5016 ft | 216 kts | 250° |
| 2026-05-05 19:33 | 50.14404 | 8.94903 | 5004 ft | 211 kts | 250° |
| 2026-05-05 19:33 | 50.13908 | 8.92788 | 5005 ft | 206 kts | 249° |
| 2026-05-05 19:33 | 50.13419 | 8.90704 | 5008 ft | 201 kts | 249° |
| 2026-05-05 19:33 | 50.12951 | 8.88710 | 4985 ft | 191 kts | 249° |
| 2026-05-05 19:34 | 50.12503 | 8.86805 | 4833 ft | 185 kts | 249° |
| 2026-05-05 19:34 | 50.12065 | 8.84940 | 4594 ft | 182 kts | 249° |
| 2026-05-05 19:34 | 50.11629 | 8.83092 | 4351 ft | 182 kts | 249° |
| 2026-05-05 19:35 | 50.10761 | 8.79409 | 3864 ft | 181 kts | 250° |
| 2026-05-05 19:35 | 50.10327 | 8.77571 | 3612 ft | 180 kts | 250° |
| 2026-05-05 19:35 | 50.09894 | 8.75737 | 3383 ft | 180 kts | 250° |
| 2026-05-05 19:35 | 50.09461 | 8.73906 | 3141 ft | 180 kts | 250° |
| 2026-05-05 19:36 | 50.09029 | 8.72079 | 2899 ft | 180 kts | 250° |
| 2026-05-05 19:36 | 50.08595 | 8.70246 | 2655 ft | 180 kts | 250° |
| 2026-05-05 19:36 | 50.08164 | 8.68428 | 2415 ft | 180 kts | 250° |
| 2026-05-05 19:36 | 50.07730 | 8.66600 | 2173 ft | 179 kts | 250° |
| 2026-05-05 19:37 | 50.07300 | 8.64788 | 1923 ft | 178 kts | 250° |
| 2026-05-05 19:37 | 50.06876 | 8.63005 | 1695 ft | 178 kts | 249° |
| 2026-05-05 19:37 | 50.06446 | 8.61195 | 1455 ft | 179 kts | 249° |
| 2026-05-05 19:37 | 50.06013 | 8.59392 | 1239 ft | 180 kts | 249° |
| 2026-05-05 19:38 | 50.05568 | 8.57576 | 1026 ft | 179 kts | 250° |
| 2026-05-05 19:38 | 50.05154 | 8.55752 | 751 ft | 179 kts | 250° |
| 2026-05-05 19:38 | 50.04720 | 8.53946 | 480 ft | 178 kts | 249° |
| 2026-05-05 19:38 | 50.04302 | 8.52199 | 336 ft | 154 kts | 248° |
| 2026-05-05 19:39 | 50.04058 | 8.51164 | 326 ft | 55 kts | 248° |
| 2026-05-05 19:39 | 50.03949 | 8.50736 | 321 ft | 36 kts | 249° |
| 2026-05-05 19:39 | 50.03849 | 8.50406 | 320 ft | 32 kts | 231° |
| 2026-05-05 19:39 | 50.03740 | 8.50251 | 320 ft | 12 kts | 221° |
| 2026-05-05 19:40 | 50.03674 | 8.50181 | 317 ft | 12 kts | 190° |
| 2026-05-05 19:40 | 50.03628 | 8.50285 | 321 ft | 18 kts | 73° |
| 2026-05-05 19:40 | 50.03671 | 8.50469 | 322 ft | 18 kts | 70° |
| 2026-05-05 19:40 | 50.03726 | 8.50704 | 322 ft | 29 kts | 70° |
| 2026-05-05 19:41 | 50.03797 | 8.51010 | 325 ft | 30 kts | 71° |
| 2026-05-05 19:41 | 50.03867 | 8.51313 | 329 ft | 30 kts | 71° |
| 2026-05-05 19:41 | 50.03918 | 8.51512 | 332 ft | 17 kts | 68° |
| 2026-05-05 19:41 | 50.03960 | 8.51680 | 334 ft | 17 kts | 70° |
| 2026-05-05 19:42 | 50.03997 | 8.51849 | 333 ft | 17 kts | 72° |
| 2026-05-05 19:42 | 50.04043 | 8.52037 | 334 ft | 22 kts | 70° |
| 2026-05-05 19:42 | 50.04107 | 8.52308 | 347 ft | 31 kts | 69° |
| 2026-05-05 19:42 | 50.04178 | 8.52593 | 351 ft | 27 kts | 69° |
| 2026-05-05 19:43 | 50.04242 | 8.52866 | 356 ft | 27 kts | 69° |
| 2026-05-05 19:43 | 50.04307 | 8.53128 | 357 ft | 25 kts | 69° |
| 2026-05-05 19:43 | 50.04367 | 8.53370 | 360 ft | 23 kts | 69° |
| 2026-05-05 19:43 | 50.04402 | 8.53618 | 361 ft | 24 kts | 85° |
| 2026-05-05 19:44 | 50.04419 | 8.53885 | 359 ft | 25 kts | 84° |
| 2026-05-05 19:44 | 50.04435 | 8.54127 | 359 ft | 19 kts | 84° |
| 2026-05-05 19:44 | 50.04449 | 8.54340 | 359 ft | 17 kts | 83° |
| 2026-05-05 19:44 | 50.04449 | 8.54497 | 359 ft | 13 kts | 99° |
| 2026-05-05 19:45 | 50.04419 | 8.54619 | 361 ft | 10 kts | 119° |
| 2026-05-05 19:45 | 50.04384 | 8.54693 | 364 ft | 8 kts | 132° |
| 2026-05-05 19:45 | 50.04348 | 8.54740 | 359 ft | 5 kts | 146° |
| 2026-05-05 19:45 | 50.04339 | 8.54749 | 365 ft | 0 kts | 148° |
| 2026-05-05 19:47 | 50.04326 | 8.54761 | 360 ft | 10 kts | 148° |
| 2026-05-05 19:47 | 50.04242 | 8.54813 | 361 ft | 14 kts | 160° |
| 2026-05-05 19:47 | 50.04143 | 8.54868 | 361 ft | 16 kts | 160° |
| 2026-05-05 19:47 | 50.04032 | 8.54932 | 362 ft | 18 kts | 159° |
| 2026-05-05 19:48 | 50.03918 | 8.54999 | 362 ft | 13 kts | 160° |
| 2026-05-05 19:48 | 50.03842 | 8.55052 | 360 ft | 10 kts | 129° |
| 2026-05-05 19:48 | 50.03859 | 8.55161 | 361 ft | 14 kts | 70° |
| 2026-05-05 19:48 | 50.03903 | 8.55344 | 360 ft | 20 kts | 70° |
| 2026-05-05 19:49 | 50.03952 | 8.55552 | 359 ft | 21 kts | 70° |
| 2026-05-05 19:49 | 50.03987 | 8.55698 | 362 ft | 22 kts | 69° |
| 2026-05-05 19:49 | 50.04064 | 8.56017 | 360 ft | 25 kts | 69° |
| 2026-05-05 19:49 | 50.04121 | 8.56254 | 360 ft | 18 kts | 69° |
| 2026-05-05 19:50 | 50.04166 | 8.56442 | 360 ft | 19 kts | 70° |
| 2026-05-05 19:50 | 50.04213 | 8.56638 | 363 ft | 15 kts | 70° |
| 2026-05-05 19:50 | 50.04221 | 8.56674 | 366 ft | 0 kts | 70° |
| 2026-05-05 19:51 | 50.04243 | 8.56768 | 362 ft | 11 kts | 70° |
| 2026-05-05 19:51 | 50.04270 | 8.56876 | 364 ft | 13 kts | 70° |
| 2026-05-05 19:51 | 50.04313 | 8.57057 | 364 ft | 19 kts | 70° |
| 2026-05-05 19:52 | 50.04362 | 8.57263 | 361 ft | 21 kts | 69° |
| 2026-05-05 19:52 | 50.04402 | 8.57432 | 364 ft | 14 kts | 69° |
| 2026-05-05 19:52 | 50.04435 | 8.57570 | 363 ft | 13 kts | 69° |
| 2026-05-05 19:52 | 50.04462 | 8.57683 | 362 ft | 10 kts | 70° |
| 2026-05-05 19:53 | 50.04497 | 8.57830 | 363 ft | 12 kts | 69° |
| 2026-05-05 19:53 | 50.04523 | 8.57941 | 362 ft | 11 kts | 69° |
| 2026-05-05 19:53 | 50.04557 | 8.58083 | 366 ft | 15 kts | 69° |
| 2026-05-05 19:53 | 50.04592 | 8.58230 | 364 ft | 14 kts | 70° |
| 2026-05-05 19:54 | 50.04619 | 8.58340 | 365 ft | 9 kts | 69° |
| 2026-05-05 19:54 | 50.04637 | 8.58414 | 364 ft | 3 kts | 69° |
| 2026-05-05 19:54 | 50.04640 | 8.58429 | 363 ft | 0 kts | 70° |
| 2026-05-05 19:56 | 50.04649 | 8.58467 | 364 ft | 15 kts | 70° |
| 2026-05-05 19:57 | 50.04690 | 8.58644 | 372 ft | 16 kts | 68° |
| 2026-05-05 19:57 | 50.04744 | 8.58757 | 369 ft | 12 kts | 10° |
| 2026-05-05 19:57 | 50.04840 | 8.58711 | 367 ft | 19 kts | 339° |
| 2026-05-05 19:57 | 50.04951 | 8.58685 | 367 ft | 16 kts | 41° |
| 2026-05-05 19:58 | 50.04993 | 8.58846 | 369 ft | 16 kts | 70° |
| 2026-05-05 19:58 | 50.05033 | 8.59013 | 371 ft | 15 kts | 70° |
| 2026-05-05 19:58 | 50.05051 | 8.59092 | 371 ft | 6 kts | 76° |
| 2026-05-05 19:58 | 50.05010 | 8.59133 | 370 ft | 8 kts | 160° |
| 2026-05-05 19:59 | 50.04983 | 8.59149 | 371 ft | 0 kts | 160° |
| 2026-05-05 19:59 | 50.04981 | 8.59150 | 370 ft | 1 kts | 159° |